Time;durP1;ratioP1;P1;durP2;ratioP2;P2;SDS_P1;SDS_P2;PMS_P1;PMS_P2;Temp;Humidity;BMP_temperature;BMP_pressure;BME280_temperature;BME280_humidity;BME280_pressure;Samples;Min_cycle;Max_cycle;Signal;HPM_P1;HPM_P2
2021/12/07 00:01:11;;;;;;;22.23;16.23;;;3.80;99.90;;;;;;5035856;28;20026;-81
2021/12/07 00:03:37;;;;;;;27.13;17.20;;;3.80;99.90;;;;;;5035944;28;20030;-81
2021/12/07 00:06:04;;;;;;;20.20;14.63;;;3.80;99.90;;;;;;5035640;28;20129;-81
2021/12/07 00:08:30;;;;;;;16.93;12.67;;;3.70;99.90;;;;;;5036042;28;20053;-81
2021/12/07 00:10:57;;;;;;;23.50;16.80;;;3.70;99.90;;;;;;5035486;28;20444;-82
2021/12/07 00:13:24;;;;;;;25.67;17.83;;;3.70;99.90;;;;;;5035457;28;20021;-80
2021/12/07 00:15:50;;;;;;;19.60;15.43;;;3.80;99.90;;;;;;5019969;28;20053;-82
2021/12/07 00:18:16;;;;;;;17.80;13.73;;;3.80;99.90;;;;;;5035770;28;20025;-82
2021/12/07 00:20:43;;;;;;;20.80;14.80;;;3.80;99.90;;;;;;5019241;28;20033;-81
2021/12/07 00:23:11;;;;;;;22.53;16.73;;;3.80;99.90;;;;;;5035469;28;20049;-82
2021/12/07 00:25:38;;;;;;;21.80;16.80;;;3.70;99.90;;;;;;5036219;28;20034;-80
2021/12/07 00:28:04;;;;;;;19.60;16.60;;;3.80;99.90;;;;;;5037949;28;20029;-81
2021/12/07 00:30:32;;;;;;;25.87;18.03;;;3.70;99.90;;;;;;5040677;28;20033;-81
2021/12/07 00:33:11;;;;;;;26.07;19.67;;;3.80;99.90;;;;;;5042182;28;20048;-81
2021/12/07 00:35:38;;;;;;;30.87;23.00;;;3.70;99.90;;;;;;5040422;28;20033;-80
2021/12/07 00:38:16;;;;;;;28.10;21.33;;;3.80;99.90;;;;;;5041422;28;20108;-81
2021/12/07 00:40:44;;;;;;;26.47;20.03;;;3.90;99.90;;;;;;5041715;28;20042;-81
2021/12/07 00:43:10;;;;;;;25.97;19.97;;;3.90;99.90;;;;;;5040512;28;20026;-81
2021/12/07 00:45:37;;;;;;;30.47;21.17;;;3.90;99.90;;;;;;5040965;28;20030;-82
2021/12/07 00:48:05;;;;;;;27.53;20.57;;;3.90;99.90;;;;;;5041162;28;20026;-81
2021/12/07 00:50:31;;;;;;;27.90;21.40;;;3.90;99.90;;;;;;5040698;28;20061;-80
2021/12/07 00:53:02;;;;;;;29.23;22.47;;;3.90;99.90;;;;;;5041124;28;20205;-81
2021/12/07 00:55:30;;;;;;;31.00;22.67;;;4.00;99.90;;;;;;5042754;28;20065;-82
2021/12/07 00:57:58;;;;;;;26.53;20.03;;;4.00;99.90;;;;;;5040806;28;20028;-83
2021/12/07 01:00:25;;;;;;;26.77;19.93;;;4.10;99.90;;;;;;5024817;28;20037;-82
2021/12/07 01:02:54;;;;;;;31.23;21.20;;;4.00;99.90;;;;;;5042350;28;20084;-82
2021/12/07 01:05:27;;;;;;;28.80;20.67;;;4.00;99.90;;;;;;5040636;28;20064;-82
2021/12/07 01:08:23;;;;;;;30.40;19.87;;;4.10;99.90;;;;;;5041109;28;20017;-82
2021/12/07 01:24:41;;;;;;;38.83;21.17;;;4.10;99.90;;;;;;5040298;28;20106;-81
2021/12/07 01:27:10;;;;;;;32.17;20.03;;;4.20;99.90;;;;;;5039527;28;20025;-82
2021/12/07 01:29:37;;;;;;;31.73;18.47;;;4.20;99.90;;;;;;5039067;28;20025;-80
2021/12/07 01:38:21;;;;;;;29.70;18.67;;;4.30;99.90;;;;;;5026759;28;20060;-81
2021/12/07 01:52:02;;;;;;;26.17;15.23;;;4.50;99.90;;;;;;5039025;28;20037;-81
2021/12/07 01:59:34;;;;;;;26.10;13.33;;;4.50;99.90;;;;;;5036581;28;20049;-80
2021/12/07 02:02:07;;;;;;;28.30;14.57;;;4.60;99.90;;;;;;5036358;28;20024;-80
2021/12/07 02:04:33;;;;;;;27.33;13.02;;;4.60;99.90;;;;;;5036231;28;20102;-81
2021/12/07 02:06:58;;;;;;;29.27;14.00;;;4.70;99.90;;;;;;5036088;28;20017;-81
2021/12/07 02:09:24;;;;;;;30.50;14.23;;;4.70;99.90;;;;;;5035947;28;20112;-80
2021/12/07 02:11:57;;;;;;;25.87;12.83;;;4.70;99.90;;;;;;5035820;28;20017;-80
2021/12/07 02:14:23;;;;;;;;;;;4.70;99.90;;;;;;5036828;28;20116;-81
2021/12/07 02:16:51;;;;;;;27.60;12.00;;;4.70;99.90;;;;;;5035905;28;19937;-81
2021/12/07 02:19:17;;;;;;;25.73;12.43;;;4.70;99.90;;;;;;5035664;28;20457;-82
2021/12/07 02:21:43;;;;;;;25.00;11.30;;;4.70;99.90;;;;;;5036123;28;20018;-81
2021/12/07 02:24:09;;;;;;;24.70;11.00;;;4.70;99.90;;;;;;5036668;28;20413;-81
2021/12/07 02:26:35;;;;;;;32.57;12.27;;;4.60;99.90;;;;;;5036596;28;20046;-80
2021/12/07 02:29:02;;;;;;;25.73;10.43;;;4.60;99.90;;;;;;5037668;28;20048;-80
2021/12/07 02:31:28;;;;;;;28.03;11.60;;;4.60;99.90;;;;;;5037895;28;20030;-80
2021/12/07 02:33:55;;;;;;;29.57;11.03;;;4.60;99.90;;;;;;5036793;28;20024;-80
2021/12/07 02:36:21;;;;;;;22.87;10.17;;;4.70;99.90;;;;;;5037528;28;20504;-81
2021/12/07 02:38:48;;;;;;;25.10;10.60;;;4.70;99.90;;;;;;5037078;28;20037;-80
2021/12/07 02:41:14;;;;;;;26.93;10.13;;;4.70;99.90;;;;;;5037793;28;20121;-80
2021/12/07 02:43:52;;;;;;;26.97;9.47;;;4.70;99.90;;;;;;5036093;28;20037;-81
2021/12/07 02:46:19;;;;;;;30.27;10.13;;;4.80;99.90;;;;;;5035324;28;20038;-81
2021/12/07 02:48:45;;;;;;;20.40;9.20;;;4.80;99.90;;;;;;5035508;28;20492;-81
2021/12/07 02:51:11;;;;;;;23.40;9.70;;;4.80;99.90;;;;;;5019500;28;20021;-81
2021/12/07 02:53:37;;;;;;;25.80;8.70;;;4.80;99.90;;;;;;5035853;28;20017;-80
2021/12/07 02:56:05;;;;;;;25.97;8.60;;;4.80;99.90;;;;;;5036299;28;20362;-81
2021/12/07 02:58:31;;;;;;;24.73;7.43;;;4.80;99.90;;;;;;5035939;28;20021;-80
2021/12/07 03:01:05;;;;;;;24.90;8.17;;;4.70;99.90;;;;;;5035678;28;20116;-81
2021/12/07 03:03:36;;;;;;;28.77;8.20;;;4.70;99.90;;;;;;5036412;28;20457;-81
2021/12/07 03:06:19;;;;;;;27.63;7.80;;;4.70;99.90;;;;;;5021443;28;20037;-81
2021/12/07 03:28:03;;;;;;;23.13;5.30;;;4.70;99.90;;;;;;5035635;28;20043;-80
2021/12/07 03:30:29;;;;;;;24.87;5.63;;;4.70;99.90;;;;;;5036990;28;20036;-81
2021/12/07 03:32:55;;;;;;;20.93;5.17;;;4.70;99.90;;;;;;5037097;28;20033;-80
2021/12/07 03:35:20;;;;;;;18.53;4.50;;;4.60;99.90;;;;;;5038248;28;20026;-81
2021/12/07 03:37:46;;;;;;;19.40;5.90;;;4.60;99.90;;;;;;5019251;28;20056;-81
2021/12/07 03:40:13;;;;;;;21.40;5.27;;;4.60;99.90;;;;;;5034481;28;20039;-81
2021/12/07 03:42:40;;;;;;;19.37;4.80;;;4.60;99.90;;;;;;5035520;28;20028;-81
2021/12/07 03:45:08;;;;;;;22.30;5.13;;;4.50;99.90;;;;;;5035198;28;20018;-81
2021/12/07 03:47:34;;;;;;;15.43;4.07;;;4.50;99.90;;;;;;5036481;28;20049;-80
2021/12/07 03:49:59;;;;;;;20.87;5.20;;;4.50;99.90;;;;;;5035284;28;20462;-80
2021/12/07 03:52:25;;;;;;;23.43;5.07;;;4.50;99.90;;;;;;5034773;28;20506;-79
2021/12/07 03:54:51;;;;;;;27.10;4.73;;;4.40;99.90;;;;;;5034519;28;20030;-81
2021/12/07 03:57:16;;;;;;;20.33;4.63;;;4.50;99.90;;;;;;5017705;28;20033;-81
2021/12/07 03:59:42;;;;;;;21.10;4.50;;;4.40;99.90;;;;;;5035034;28;20049;-81
2021/12/07 04:02:08;;;;;;;26.80;5.23;;;4.40;99.90;;;;;;5035936;28;20080;-79
2021/12/07 04:04:38;;;;;;;22.63;4.63;;;4.40;99.90;;;;;;5038901;28;20056;-80
2021/12/07 04:07:05;;;;;;;26.40;5.47;;;4.30;99.90;;;;;;5023952;28;20033;-80
2021/12/07 04:09:32;;;;;;;21.57;5.13;;;4.30;99.90;;;;;;5040136;28;20577;-81
2021/12/07 04:11:59;;;;;;;27.90;5.00;;;4.30;99.90;;;;;;5024396;28;20060;-81
2021/12/07 04:14:25;;;;;;;23.07;4.43;;;4.30;99.90;;;;;;5040343;28;20101;-80
2021/12/07 04:16:52;;;;;;;17.83;4.77;;;4.30;99.90;;;;;;5040408;28;20021;-79
2021/12/07 04:19:17;;;;;;;15.77;4.47;;;4.30;99.90;;;;;;5023322;28;20030;-79
2021/12/07 04:21:43;;;;;;;19.27;4.80;;;4.30;99.90;;;;;;5040374;28;20101;-81
2021/12/07 04:24:11;;;;;;;22.30;4.63;;;4.10;99.90;;;;;;5040642;28;20550;-81
2021/12/07 04:26:38;;;;;;;20.03;4.50;;;4.20;99.90;;;;;;5040185;28;20026;-81
2021/12/07 04:29:04;;;;;;;24.33;4.90;;;4.10;99.90;;;;;;5039753;28;20048;-80
2021/12/07 04:31:30;;;;;;;21.17;4.43;;;4.10;99.90;;;;;;5040130;28;20473;-79
2021/12/07 04:33:56;;;;;;;22.53;3.93;;;4.10;99.90;;;;;;5039970;28;20044;-79
2021/12/07 04:36:22;;;;;;;24.83;5.07;;;4.10;99.90;;;;;;5041321;28;20030;-81
2021/12/07 04:38:47;;;;;;;15.33;4.00;;;4.10;99.90;;;;;;5041554;28;20033;-81
2021/12/07 04:41:13;;;;;;;18.77;4.03;;;4.10;99.90;;;;;;5040271;28;20082;-81
2021/12/07 04:43:40;;;;;;;16.80;3.53;;;4.10;99.90;;;;;;5039747;28;20051;-81
2021/12/07 04:59:31;;;;;;;14.60;3.40;;;4.00;99.90;;;;;;5041315;28;20044;-81
2021/12/07 05:01:58;;;;;;;17.23;4.10;;;4.00;99.90;;;;;;5023458;28;20450;-80
2021/12/07 05:04:28;;;;;;;19.87;4.27;;;4.00;99.90;;;;;;5040128;28;20462;-81
2021/12/07 05:07:00;;;;;;;26.87;4.37;;;4.00;99.90;;;;;;5024264;28;20029;-81
2021/12/07 05:09:40;;;;;;;18.95;4.25;;;3.90;99.90;;;;;;5038916;28;20029;-81
2021/12/07 05:14:42;;;;;;;24.83;4.38;;;3.90;99.90;;;;;;5037986;28;20033;-80
2021/12/07 05:39:09;;;;;;;13.50;2.60;;;3.90;99.90;;;;;;5034295;28;20097;-81
2021/12/07 05:41:35;;;;;;;15.10;2.90;;;3.90;99.90;;;;;;5037431;28;20065;-81
2021/12/07 05:44:03;;;;;;;15.13;2.53;;;3.90;99.90;;;;;;5042015;28;20022;-80
2021/12/07 05:46:29;;;;;;;13.30;2.90;;;4.00;99.90;;;;;;5024798;28;20104;-80
2021/12/07 05:48:54;;;;;;;15.87;2.70;;;4.00;99.90;;;;;;5041524;28;20060;-82
2021/12/07 05:51:20;;;;;;;18.37;3.07;;;4.00;99.90;;;;;;5042017;28;20025;-81
2021/12/07 05:53:46;;;;;;;14.43;3.07;;;3.90;99.90;;;;;;5022712;28;20053;-80
2021/12/07 05:56:11;;;;;;;12.70;2.80;;;3.90;99.90;;;;;;5016951;28;20069;-79
2021/12/07 05:58:37;;;;;;;17.13;3.23;;;3.80;99.90;;;;;;5033779;28;20029;-79
2021/12/07 06:01:03;;;;;;;20.97;3.57;;;3.90;99.90;;;;;;5050835;28;20029;-78
2021/12/07 06:03:29;;;;;;;14.63;2.87;;;3.80;99.90;;;;;;5050270;28;20030;-79
2021/12/07 06:05:55;;;;;;;16.60;3.17;;;3.80;99.90;;;;;;5033722;28;20048;-78
2021/12/07 06:08:22;;;;;;;18.43;3.43;;;3.80;99.90;;;;;;5033337;28;20091;-79
2021/12/07 06:10:48;;;;;;;12.57;3.13;;;3.70;99.90;;;;;;5033268;28;20091;-78
2021/12/07 06:13:14;;;;;;;21.53;4.53;;;3.70;99.90;;;;;;5034633;28;20100;-79
2021/12/07 06:15:44;;;;;;;15.37;3.63;;;3.70;99.90;;;;;;5017503;28;20035;-79
2021/12/07 06:18:10;;;;;;;21.10;4.67;;;3.60;99.90;;;;;;5050506;28;20025;-80
2021/12/07 06:20:35;;;;;;;19.83;4.30;;;3.70;99.90;;;;;;5034641;28;20095;-80
2021/12/07 06:23:01;;;;;;;15.33;3.70;;;3.70;99.90;;;;;;5016427;28;20060;-76
2021/12/07 06:25:28;;;;;;;20.87;4.93;;;3.70;99.90;;;;;;5017224;28;20026;-79
2021/12/07 06:27:55;;;;;;;22.13;4.57;;;3.70;99.90;;;;;;5032908;28;20037;-79
2021/12/07 06:30:20;;;;;;;13.23;3.90;;;3.80;99.90;;;;;;5033064;28;20057;-77
2021/12/07 06:32:46;;;;;;;13.17;4.00;;;3.70;99.90;;;;;;5033310;28;20049;-79
2021/12/07 06:35:12;;;;;;;15.37;3.70;;;3.70;99.90;;;;;;5017404;28;20128;-79
2021/12/07 06:37:38;;;;;;;19.40;3.90;;;3.70;99.90;;;;;;5033865;28;20025;-80
2021/12/07 06:40:11;;;;;;;16.83;4.40;;;3.60;99.90;;;;;;5016475;28;20038;-79
2021/12/07 06:42:38;;;;;;;17.00;3.97;;;3.60;99.90;;;;;;5034940;28;20242;-80
2021/12/07 06:45:07;;;;;;;20.57;4.40;;;3.70;99.90;;;;;;5033517;28;20367;-79
2021/12/07 06:47:33;;;;;;;19.47;4.40;;;3.60;99.90;;;;;;5035712;28;20037;-79
2021/12/07 06:49:59;;;;;;;16.77;3.90;;;3.60;99.90;;;;;;5019875;28;20025;-79
2021/12/07 06:52:25;;;;;;;18.37;4.30;;;3.60;99.90;;;;;;5037206;28;20457;-79
2021/12/07 06:54:50;;;;;;;18.80;4.47;;;3.70;99.90;;;;;;5035658;28;20056;-79
2021/12/07 06:57:16;;;;;;;18.13;4.40;;;3.70;99.90;;;;;;5035959;28;20028;-80
2021/12/07 06:59:42;;;;;;;16.67;4.00;;;3.70;99.90;;;;;;5018856;28;20469;-80
2021/12/07 07:02:08;;;;;;;14.77;4.07;;;3.70;99.90;;;;;;5020699;28;20068;-79
2021/12/07 07:04:33;;;;;;;14.40;3.93;;;3.70;99.90;;;;;;5039100;28;20056;-80
2021/12/07 07:06:59;;;;;;;18.60;4.53;;;3.70;99.90;;;;;;5038844;28;20021;-81
2021/12/07 07:09:25;;;;;;;16.50;4.80;;;3.70;99.90;;;;;;5021266;28;20033;-80
2021/12/07 07:11:50;;;;;;;15.10;4.23;;;3.70;99.90;;;;;;5039548;28;20147;-80
2021/12/07 07:14:16;;;;;;;16.97;5.00;;;3.60;99.90;;;;;;5040031;28;20029;-79
2021/12/07 07:16:42;;;;;;;14.57;4.27;;;3.60;99.90;;;;;;5039037;28;20112;-79
2021/12/07 07:19:08;;;;;;;19.10;5.63;;;3.60;99.90;;;;;;5021313;28;20033;-78
2021/12/07 07:21:33;;;;;;;17.77;5.20;;;3.60;99.90;;;;;;5025246;28;20036;-80
2021/12/07 07:23:59;;;;;;;18.97;5.93;;;3.60;99.90;;;;;;5027151;28;20045;-81
2021/12/07 07:26:25;;;;;;;18.37;5.83;;;3.60;99.90;;;;;;5026555;28;20112;-79
2021/12/07 07:28:51;;;;;;;20.03;5.23;;;3.60;99.90;;;;;;5044134;28;20022;-80
2021/12/07 07:31:16;;;;;;;17.73;5.53;;;3.60;99.90;;;;;;5025239;28;20114;-80
2021/12/07 07:33:42;;;;;;;18.83;5.30;;;3.60;99.90;;;;;;5042980;28;20028;-82
2021/12/07 07:36:08;;;;;;;18.20;6.87;;;3.50;99.90;;;;;;5026327;28;20034;-79
2021/12/07 07:38:34;;;;;;;17.07;6.70;;;3.50;99.90;;;;;;5042953;28;20040;-80
2021/12/07 07:41:00;;;;;;;20.83;7.57;;;3.60;99.90;;;;;;5040404;28;20041;-80
2021/12/07 07:43:25;;;;;;;23.43;7.60;;;3.60;99.90;;;;;;5038961;28;20025;-80
2021/12/07 07:45:52;;;;;;;22.90;8.67;;;3.60;99.90;;;;;;5035990;28;20024;-80
2021/12/07 07:48:20;;;;;;;19.67;8.73;;;3.70;99.90;;;;;;5033335;28;20025;-80
2021/12/07 07:50:47;;;;;;;21.03;7.90;;;3.80;99.90;;;;;;5033821;28;20040;-80
2021/12/07 07:53:13;;;;;;;21.00;8.73;;;3.80;99.90;;;;;;5032914;28;20064;-78
2021/12/07 07:55:42;;;;;;;22.83;8.03;;;4.00;99.90;;;;;;5015930;28;20025;-79
2021/12/07 07:58:09;;;;;;;21.00;8.13;;;4.00;99.90;;;;;;5050211;28;20433;-78
2021/12/07 08:00:35;;;;;;;27.43;9.17;;;4.20;99.90;;;;;;5015525;28;20054;-79
2021/12/07 08:03:03;;;;;;;22.50;7.30;;;4.40;99.90;;;;;;5033462;28;20438;-79
2021/12/07 08:05:29;;;;;;;26.47;9.10;;;4.70;99.90;;;;;;5032456;28;20124;-79
2021/12/07 08:07:54;;;;;;;20.53;7.30;;;4.90;99.90;;;;;;5032185;28;20029;-80
2021/12/07 08:10:27;;;;;;;23.00;7.77;;;5.20;99.90;;;;;;5016346;28;20037;-80
2021/12/07 08:12:54;;;;;;;;;;;5.50;99.90;;;;;;5018581;28;20026;-79
2021/12/07 08:15:19;;;;;;;29.13;12.53;;;5.70;99.90;;;;;;5032839;28;19925;-80
2021/12/07 08:17:45;;;;;;;30.90;12.83;;;6.00;99.90;;;;;;5033612;28;20021;-79
2021/12/07 08:20:11;;;;;;;20.43;9.03;;;6.40;99.90;;;;;;5033261;28;20045;-79
2021/12/07 08:22:37;;;;;;;24.93;10.47;;;6.70;99.90;;;;;;5035207;28;20050;-80
2021/12/07 08:25:03;;;;;;;25.50;9.90;;;6.90;99.90;;;;;;5034837;28;20469;-77
2021/12/07 08:27:28;;;;;;;23.73;9.10;;;7.30;99.90;;;;;;5051216;28;20022;-79
2021/12/07 08:29:54;;;;;;;24.43;11.53;;;7.60;99.90;;;;;;5020818;28;20037;-80
2021/12/07 08:32:20;;;;;;;25.97;10.93;;;7.80;99.90;;;;;;5021428;28;20036;-82
2021/12/07 08:34:46;;;;;;;33.77;14.43;;;8.00;99.90;;;;;;5022574;28;20379;-81
2021/12/07 08:37:11;;;;;;;24.97;12.60;;;8.20;99.90;;;;;;5038281;28;20037;-82
2021/12/07 08:39:37;;;;;;;28.93;13.57;;;8.50;99.90;;;;;;5037459;28;20038;-81
2021/12/07 08:42:05;;;;;;;31.83;12.80;;;8.50;99.90;;;;;;5021465;28;20056;-80
2021/12/07 08:44:31;;;;;;;27.63;11.00;;;8.70;99.60;;;;;;5038560;28;20048;-80
2021/12/07 08:46:57;;;;;;;23.67;9.47;;;8.80;98.80;;;;;;5045566;28;20025;-81
2021/12/07 08:49:23;;;;;;;26.13;9.77;;;8.80;97.90;;;;;;5038295;28;20048;-81
2021/12/07 08:51:52;;;;;;;18.37;7.37;;;8.80;97.90;;;;;;5040402;28;20095;-82
2021/12/07 08:59:39;;;;;;;23.33;9.60;;;8.80;96.30;;;;;;5056670;28;20029;-81
2021/12/07 09:00:08;;;;;;;20.23;7.53;;;7.70;95.90;;;;;;5042190;28;20048;-81
2021/12/07 09:02:34;;;;;;;20.07;6.57;;;7.20;97.10;;;;;;5024294;28;20461;-81
2021/12/07 09:05:00;;;;;;;23.30;5.87;;;6.80;97.70;;;;;;5026170;28;20100;-80
2021/12/07 09:07:27;;;;;;;17.07;7.00;;;6.40;98.00;;;;;;5047334;28;20036;-81
2021/12/07 09:09:52;;;;;;;22.27;7.77;;;6.30;98.70;;;;;;5049744;28;20029;-80
2021/12/07 09:12:20;;;;;;;23.87;8.63;;;6.20;99.40;;;;;;5051047;28;20077;-81
2021/12/07 09:14:47;;;;;;;22.07;7.00;;;6.30;99.90;;;;;;5053110;28;20021;-80
2021/12/07 09:17:14;;;;;;;19.57;7.30;;;6.80;99.90;;;;;;5054329;28;20025;-82
2021/12/07 09:19:40;;;;;;;22.17;7.63;;;7.30;99.80;;;;;;5054054;28;20060;-81
2021/12/07 09:22:07;;;;;;;14.97;6.00;;;7.80;99.50;;;;;;5055132;28;20029;-79
2021/12/07 09:24:33;;;;;;;20.67;6.07;;;8.20;98.80;;;;;;5055683;28;20025;-82
2021/12/07 09:27:00;;;;;;;25.90;8.77;;;8.70;98.20;;;;;;5039192;28;20026;-81
2021/12/07 09:29:26;;;;;;;19.87;8.23;;;9.00;97.90;;;;;;5038507;28;20096;-79
2021/12/07 09:31:52;;;;;;;19.60;5.87;;;9.40;97.00;;;;;;5038691;28;20018;-81
2021/12/07 09:34:18;;;;;;;16.07;7.03;;;9.80;96.10;;;;;;5052336;28;20604;-82
2021/12/07 09:36:44;;;;;;;16.87;6.90;;;10.00;94.60;;;;;;5049368;28;20026;-79
2021/12/07 09:39:15;;;;;;;13.57;5.43;;;10.20;94.40;;;;;;5050861;28;20032;-79
2021/12/07 09:41:42;;;;;;;14.17;4.43;;;10.40;94.30;;;;;;5047720;28;20022;-80
2021/12/07 09:44:09;;;;;;;16.77;5.47;;;10.60;92.90;;;;;;5045597;28;20100;-79
2021/12/07 09:46:36;;;;;;;16.70;5.10;;;10.60;90.70;;;;;;5026263;28;20466;-80
2021/12/07 09:49:03;;;;;;;13.60;5.00;;;10.80;91.80;;;;;;5038339;28;20071;-81
2021/12/07 09:51:29;;;;;;;13.47;3.30;;;11.10;91.10;;;;;;5038015;28;20025;-81
2021/12/07 09:53:57;;;;;;;16.47;7.00;;;11.20;85.70;;;;;;5038707;28;20367;-81
2021/12/07 09:56:25;;;;;;;14.73;4.33;;;11.10;87.80;;;;;;5037289;28;20458;-80
2021/12/07 09:58:54;;;;;;;15.60;4.93;;;11.10;87.70;;;;;;5037312;28;20045;-81
2021/12/07 10:01:21;;;;;;;16.67;4.67;;;11.20;87.40;;;;;;5038041;28;20048;-81
2021/12/07 10:03:47;;;;;;;15.27;5.13;;;11.50;86.80;;;;;;5036786;28;20026;-81
2021/12/07 10:06:13;;;;;;;14.43;5.90;;;11.60;88.20;;;;;;5034612;28;20022;-82
2021/12/07 10:08:40;;;;;;;13.77;6.23;;;11.80;88.30;;;;;;5034457;28;20029;-83
2021/12/07 10:11:08;;;;;;;17.00;5.87;;;12.10;88.10;;;;;;5034964;28;20038;-81
2021/12/07 10:13:34;;;;;;;11.23;4.60;;;12.30;84.90;;;;;;5036236;28;20075;-82
2021/12/07 10:16:04;;;;;;;13.63;4.57;;;12.40;83.40;;;;;;5017820;28;20498;-82
2021/12/07 10:18:35;;;;;;;13.63;4.03;;;12.50;81.40;;;;;;5034153;28;20539;-81
2021/12/07 10:21:05;;;;;;;13.05;4.57;;;12.60;81.10;;;;;;5035372;28;20029;-80
2021/12/07 10:23:40;;;;;;;13.45;4.13;;;12.60;79.60;;;;;;5033734;28;20132;-81
2021/12/07 10:26:27;;;;;;;14.52;4.65;;;12.60;77.90;;;;;;5034284;28;20033;-82
2021/12/07 10:28:58;;;;;;;17.67;5.55;;;12.60;79.70;;;;;;5036164;28;20020;-81
2021/12/07 10:31:37;;;;;;;12.57;4.93;;;12.40;77.10;;;;;;5033960;28;20060;-81
2021/12/07 10:34:07;;;;;;;11.88;4.65;;;12.40;78.70;;;;;;5034417;28;20037;-82
2021/12/07 10:36:46;;;;;;;13.52;4.40;;;12.60;78.60;;;;;;5034251;28;20029;-81
2021/12/07 10:39:16;;;;;;;12.38;3.53;;;12.70;77.70;;;;;;5033721;28;20032;-82
2021/12/07 10:41:54;;;;;;;12.95;3.72;;;12.70;76.60;;;;;;5033612;28;20026;-82
2021/12/07 10:44:35;;;;;;;12.40;3.65;;;12.80;77.30;;;;;;5036144;28;20136;-83
2021/12/07 10:47:06;;;;;;;11.55;3.70;;;12.70;74.40;;;;;;5037651;28;20113;-82
2021/12/07 10:49:49;;;;;;;12.50;3.40;;;12.40;74.10;;;;;;5037504;28;20033;-81
2021/12/07 10:52:20;;;;;;;12.85;3.70;;;12.30;73.90;;;;;;5035945;28;20024;-82
2021/12/07 10:54:56;;;;;;;15.38;4.03;;;12.30;74.60;;;;;;5036070;28;20079;-83
2021/12/07 10:57:44;;;;;;;15.45;3.72;;;12.40;76.10;;;;;;5033910;28;20080;-83
2021/12/07 11:00:20;;;;;;;14.13;3.58;;;12.60;74.80;;;;;;5027083;28;20041;-82
2021/12/07 11:02:58;;;;;;;14.27;3.78;;;12.70;74.80;;;;;;5035620;28;20029;-83
2021/12/07 11:05:54;;;;;;;13.45;3.65;;;12.70;73.90;;;;;;5034601;28;20071;-83
2021/12/07 11:08:22;;;;;;;11.57;3.90;;;12.60;73.60;;;;;;5031574;28;20069;-83
2021/12/07 11:10:50;;;;;;;13.48;3.80;;;12.30;72.60;;;;;;5034316;28;20033;-82
2021/12/07 11:13:25;;;;;;;15.00;3.70;;;12.30;72.70;;;;;;5016146;28;20045;-83
2021/12/07 11:15:56;;;;;;;9.75;3.13;;;12.30;73.10;;;;;;5033144;28;20026;-83
2021/12/07 11:18:29;;;;;;;11.27;2.80;;;12.20;73.50;;;;;;5032936;28;20036;-83
2021/12/07 11:21:00;;;;;;;11.50;2.20;;;12.10;73.30;;;;;;5034406;28;20034;-82
2021/12/07 11:23:30;;;;;;;14.33;2.13;;;11.60;69.60;;;;;;5032998;28;20045;-83
2021/12/07 11:31:31;;;;;;;11.07;2.53;;;10.60;74.20;;;;;;5034596;28;20047;-83
2021/12/07 11:34:08;;;;;;;14.53;2.77;;;10.50;74.10;;;;;;5033076;28;20028;-83
2021/12/07 11:36:56;;;;;;;14.03;2.40;;;10.30;73.90;;;;;;5033406;28;20083;-81
2021/12/07 11:39:27;;;;;;;13.10;2.40;;;9.90;75.80;;;;;;5032852;28;20021;-82
2021/12/07 11:42:18;;;;;;;6.90;1.87;;;9.80;78.70;;;;;;5034386;28;20053;-82
2021/12/07 11:45:12;;;;;;;11.60;2.40;;;9.60;77.30;;;;;;5032905;28;20052;-82
2021/12/07 11:47:41;;;;;;;12.97;2.10;;;9.60;79.90;;;;;;5031092;28;20132;-82
2021/12/07 11:50:16;;;;;;;13.13;2.00;;;9.60;79.10;;;;;;5033199;28;20059;-82
2021/12/07 11:52:42;;;;;;;13.90;2.40;;;9.60;79.50;;;;;;5034055;28;20530;-82
2021/12/07 11:55:09;;;;;;;11.33;2.43;;;9.60;79.70;;;;;;5032980;28;20033;-83
2021/12/07 11:57:37;;;;;;;10.23;1.87;;;9.50;78.60;;;;;;5049970;28;20025;-82
2021/12/07 12:00:05;;;;;;;11.53;1.50;;;9.50;81.40;;;;;;5017357;28;20072;-82
2021/12/07 12:02:31;;;;;;;8.97;1.57;;;9.50;80.80;;;;;;5033404;28;20112;-82
2021/12/07 12:04:57;;;;;;;11.83;2.23;;;9.30;80.80;;;;;;5017452;28;20049;-82
2021/12/07 12:07:22;;;;;;;12.00;1.57;;;9.40;83.50;;;;;;5017834;28;20039;-82
2021/12/07 12:09:50;;;;;;;9.03;1.90;;;9.40;83.40;;;;;;5018078;28;20401;-82
2021/12/07 12:12:50;;;;;;;13.37;2.30;;;9.30;84.50;;;;;;5017405;28;20540;-82
2021/12/07 12:15:43;;;;;;;9.17;1.60;;;8.90;80.40;;;;;;5033730;28;20077;-82
2021/12/07 12:18:14;;;;;;;16.65;2.42;;;8.70;82.10;;;;;;5033665;28;20025;-81
2021/12/07 12:21:17;;;;;;;14.37;2.57;;;8.40;83.00;;;;;;5033028;28;20383;-80
2021/12/07 12:24:04;;;;;;;18.05;2.60;;;8.10;84.90;;;;;;5032542;28;20386;-81
2021/12/07 12:26:30;;;;;;;13.30;2.33;;;8.10;87.80;;;;;;5037512;28;20030;-82
2021/12/07 12:28:57;;;;;;;14.77;2.50;;;8.00;88.60;;;;;;5036705;28;20112;-82
2021/12/07 12:31:43;;;;;;;13.07;2.20;;;8.00;88.30;;;;;;5036946;28;20071;-83
2021/12/07 12:34:33;;;;;;;9.57;1.90;;;8.10;86.40;;;;;;5037613;28;20450;-82
2021/12/07 12:37:14;;;;;;;12.57;1.83;;;8.00;89.90;;;;;;5030636;28;20076;-83
2021/12/07 12:40:00;;;;;;;13.23;2.30;;;8.10;89.80;;;;;;5036260;28;20033;-80
2021/12/07 12:42:40;;;;;;;15.07;2.40;;;8.30;90.90;;;;;;5036470;28;20416;-84
2021/12/07 12:45:23;;;;;;;15.20;1.83;;;8.20;87.90;;;;;;5037627;28;20104;-83
2021/12/07 12:47:57;;;;;;;16.15;2.47;;;8.00;88.20;;;;;;5037556;28;20018;-83
2021/12/07 12:50:50;;;;;;;9.73;1.90;;;8.00;86.10;;;;;;5037537;28;20397;-84
2021/12/07 12:53:23;;;;;;;15.88;2.38;;;7.80;85.60;;;;;;5034101;28;20037;-83
2021/12/07 12:55:52;;;;;;;18.20;2.55;;;7.80;88.40;;;;;;5036064;28;20028;-83
2021/12/07 12:58:38;;;;;;;14.90;2.17;;;7.90;88.30;;;;;;5038467;28;20025;-83
2021/12/07 13:01:21;;;;;;;11.03;1.50;;;7.90;87.90;;;;;;5041766;28;20067;-85
2021/12/07 13:03:55;;;;;;;10.05;2.25;;;7.90;86.70;;;;;;5047477;28;20065;-83
2021/12/07 13:06:43;;;;;;;16.60;3.47;;;7.80;86.80;;;;;;5046663;28;20120;-83
2021/12/07 13:09:20;;;;;;;13.13;1.90;;;7.80;87.40;;;;;;5047925;28;20025;-83
2021/12/07 13:11:53;;;;;;;17.57;2.63;;;7.70;86.30;;;;;;5046187;28;20048;-80
2021/12/07 13:14:22;;;;;;;12.87;2.30;;;7.70;88.20;;;;;;5045962;28;20025;-81
2021/12/07 13:16:52;;;;;;;15.90;2.53;;;7.70;87.20;;;;;;5045674;28;20037;-85
2021/12/07 13:19:18;;;;;;;13.37;2.60;;;7.60;87.00;;;;;;5048011;28;20106;-85
2021/12/07 13:21:46;;;;;;;9.33;1.13;;;7.60;88.50;;;;;;5045362;28;20018;-81
2021/12/07 13:24:18;;;;;;;14.00;2.27;;;7.60;87.00;;;;;;5044403;28;20119;-85
2021/12/07 13:26:52;;;;;;;12.07;1.53;;;7.50;86.70;;;;;;5045206;28;20034;-83
2021/12/07 13:29:23;;;;;;;11.80;1.50;;;7.40;85.20;;;;;;5044516;28;20039;-85
2021/12/07 13:31:53;;;;;;;12.70;1.63;;;7.30;86.10;;;;;;5044246;28;20102;-82
2021/12/07 13:34:33;;;;;;;7.83;1.23;;;7.20;87.50;;;;;;5044104;28;20572;-84
2021/12/07 13:37:20;;;;;;;9.57;1.07;;;7.10;86.20;;;;;;5042704;28;20018;-84
2021/12/07 13:39:56;;;;;;;12.00;1.40;;;7.10;86.70;;;;;;5042797;28;20037;-81
2021/12/07 13:42:28;;;;;;;16.17;2.27;;;7.00;86.60;;;;;;5042782;28;20029;-83
2021/12/07 13:45:05;;;;;;;12.07;1.83;;;7.00;88.40;;;;;;5042768;28;20025;-85
2021/12/07 13:47:35;;;;;;;11.97;2.30;;;7.00;88.60;;;;;;5042468;28;20024;-83
2021/12/07 13:50:06;;;;;;;10.57;2.53;;;7.00;88.60;;;;;;5042970;28;20469;-85
2021/12/07 13:52:35;;;;;;;12.63;1.67;;;7.00;88.70;;;;;;5042852;28;20017;-86
2021/12/07 13:55:06;;;;;;;12.43;1.90;;;7.00;89.40;;;;;;5042533;28;20047;-85
2021/12/07 13:57:35;;;;;;;13.93;2.20;;;7.00;89.10;;;;;;5042471;28;20033;-82
2021/12/07 14:00:27;;;;;;;8.77;2.17;;;6.90;88.30;;;;;;5040761;28;20488;-83
2021/12/07 14:03:19;;;;;;;11.43;2.17;;;6.80;88.30;;;;;;5041860;28;20047;-84
2021/12/07 14:05:45;;;;;;;10.90;1.83;;;6.80;88.50;;;;;;5043289;28;20021;-83
2021/12/07 14:08:14;;;;;;;13.43;1.67;;;6.80;89.40;;;;;;5042710;28;20082;-84
2021/12/07 14:10:49;;;;;;;9.17;1.30;;;6.80;89.20;;;;;;5042946;28;20070;-83
2021/12/07 14:13:16;;;;;;;7.07;1.37;;;6.80;90.00;;;;;;5042451;28;20033;-85
2021/12/07 14:15:44;;;;;;;9.00;1.30;;;6.70;89.30;;;;;;5043772;28;20081;-84
2021/12/07 14:18:14;;;;;;;11.30;1.10;;;6.70;89.60;;;;;;5043575;28;20021;-85
2021/12/07 14:20:49;;;;;;;16.03;4.20;;;6.70;90.00;;;;;;5043800;28;20147;-86
2021/12/07 14:23:27;;;;;;;13.73;4.07;;;6.70;91.00;;;;;;5043916;28;20042;-85
2021/12/07 14:26:01;;;;;;;10.17;2.30;;;6.70;90.90;;;;;;5042700;28;20043;-81
2021/12/07 14:28:29;;;;;;;8.00;1.80;;;6.70;91.40;;;;;;5042222;28;20515;-85
2021/12/07 14:31:18;;;;;;;9.90;1.70;;;6.70;90.90;;;;;;5041944;28;20029;-85
2021/12/07 14:33:50;;;;;;;11.80;1.80;;;6.70;91.40;;;;;;5036341;28;20038;-83
2021/12/07 14:36:27;;;;;;;10.43;2.40;;;6.60;91.30;;;;;;5041422;28;20027;-84
2021/12/07 14:38:56;;;;;;;13.83;1.37;;;6.60;91.00;;;;;;5042656;28;20017;-80
2021/12/07 14:41:24;;;;;;;14.77;1.87;;;6.60;90.50;;;;;;5040413;28;20029;-84